createdAt,value
2019-05-16T00:00:35.063Z,86.95
2019-05-16T00:03:08.014Z,86.98
2019-05-16T00:05:50.733Z,87.64
2019-05-16T00:08:14.058Z,88.31
2019-05-16T00:10:48.602Z,88.74
2019-05-16T00:13:54.901Z,88.96
2019-05-16T00:17:24.762Z,89.06
2019-05-16T00:19:32.275Z,88.89
2019-05-16T00:22:08.553Z,88.45
2019-05-16T00:24:40.179Z,88.51
2019-05-16T00:27:12.385Z,89.13
2019-05-16T00:29:44.428Z,89.04
2019-05-16T00:36:24.085Z,88.88
2019-05-16T00:39:11.172Z,89.26
2019-05-16T00:41:47.903Z,89.53
2019-05-16T00:44:20.110Z,89.63
2019-05-16T00:46:52.116Z,90.02
2019-05-16T00:49:24.195Z,90.64
2019-05-16T00:51:58.457Z,90.77
2019-05-16T00:54:55.056Z,90.78
2019-05-16T01:00:45.983Z,89.81
2019-05-16T01:06:53.536Z,88.60
2019-05-16T01:09:28.248Z,88.71
2019-05-16T01:12:01.373Z,88.83
2019-05-16T01:14:35.186Z,89.24
2019-05-16T01:17:08.962Z,89.71
2019-05-16T01:19:40.936Z,89.62
2019-05-16T01:22:13.319Z,89.60
2019-05-16T01:24:49.088Z,89.60
2019-05-16T01:27:20.589Z,90.13
2019-05-16T01:29:54.502Z,90.03
2019-05-16T01:32:31.854Z,89.72
2019-05-16T01:35:00.334Z,89.61
2019-05-16T01:37:32.303Z,89.50
2019-05-16T01:40:04.399Z,89.17
2019-05-16T01:42:38.308Z,89.29
2019-05-16T01:45:11.541Z,89.00
2019-05-16T01:47:43.497Z,88.82
2019-05-16T01:50:18.001Z,89.01
2019-05-16T01:52:49.745Z,89.23
2019-05-16T01:55:21.818Z,89.33
2019-05-16T01:57:53.899Z,89.33
2019-05-16T02:00:35.793Z,89.64
2019-05-16T02:03:00.314Z,89.54
2019-05-16T02:05:32.403Z,89.44
2019-05-16T02:08:04.393Z,89.58
2019-05-16T02:10:38.794Z,89.94
2019-05-16T02:13:10.897Z,89.78
2019-05-16T02:15:43.287Z,89.36
2019-05-16T02:18:18.478Z,88.89
2019-05-16T02:20:50.773Z,88.22
2019-05-16T02:23:22.795Z,88.58
2019-05-16T02:25:54.788Z,88.57
2019-05-16T02:28:30.896Z,89.05
2019-05-16T02:31:01.703Z,90.00
2019-05-16T02:33:34.829Z,90.33
2019-05-16T02:36:06.856Z,90.34
2019-05-16T02:38:42.002Z,90.31
2019-05-16T02:41:12.769Z,90.02
2019-05-16T02:43:44.835Z,90.19
2019-05-16T02:46:16.976Z,90.35
2019-05-16T02:48:51.810Z,90.37
2019-05-16T02:51:22.666Z,90.62
2019-05-16T02:53:56.599Z,90.35
2019-05-16T02:56:31.665Z,89.98
2019-05-16T02:59:02.483Z,89.21
2019-05-16T03:01:35.081Z,89.10
2019-05-16T03:04:07.251Z,88.96
2019-05-16T03:06:41.160Z,88.30
2019-05-16T03:09:14.039Z,87.92
2019-05-16T03:11:46.671Z,87.29
2019-05-16T03:14:21.312Z,87.63
2019-05-16T03:16:55.115Z,87.97
2019-05-16T03:19:31.134Z,88.03
2019-05-16T03:22:05.372Z,88.02
2019-05-16T03:24:42.035Z,87.99
2019-05-16T03:27:12.726Z,87.61
2019-05-16T03:29:44.687Z,88.44
2019-05-16T03:32:16.709Z,88.45
2019-05-16T03:34:54.198Z,88.99
2019-05-16T03:37:24.953Z,89.13
2019-05-16T03:39:56.613Z,89.04
2019-05-16T03:42:31.064Z,89.13
2019-05-16T03:45:02.662Z,89.16
2019-05-16T03:47:34.675Z,88.97
2019-05-16T03:50:06.890Z,88.48
2019-05-16T03:52:43.701Z,89.00
2019-05-16T03:55:15.003Z,88.86
2019-05-16T03:57:46.984Z,88.35
2019-05-16T04:00:21.232Z,87.94
2019-05-16T04:02:53.314Z,87.56
2019-05-16T04:05:26.087Z,87.66
2019-05-16T04:08:18.510Z,87.68
2019-05-16T04:10:35.552Z,87.72
2019-05-16T04:13:11.529Z,87.49
2019-05-16T04:15:43.434Z,88.03
2019-05-16T04:18:15.840Z,88.15
2019-05-16T04:20:47.805Z,87.99
2019-05-16T04:23:20.609Z,87.83
2019-05-16T04:25:53.950Z,87.97
2019-05-16T04:28:26.027Z,88.13
2019-05-16T04:31:01.419Z,88.25
2019-05-16T04:33:31.712Z,88.31
2019-05-16T04:36:03.673Z,88.96
2019-05-16T04:38:41.397Z,89.14
2019-05-16T04:41:11.507Z,89.38
2019-05-16T04:43:45.409Z,89.62
2019-05-16T04:46:20.927Z,89.61
2019-05-16T04:48:51.299Z,90.30
2019-05-16T04:51:23.456Z,90.86
2019-05-16T04:53:55.537Z,91.06
2019-05-16T04:56:30.666Z,91.31
2019-05-16T04:59:01.283Z,91.42
2019-05-16T05:01:33.411Z,91.66
2019-05-16T05:04:10.886Z,92.35
2019-05-16T05:06:40.560Z,93.33
2019-05-16T05:09:12.921Z,93.91
2019-05-16T05:11:46.678Z,94.19
2019-05-16T05:14:21.062Z,94.28
2019-05-16T05:16:54.095Z,94.19
2019-05-16T05:19:26.092Z,93.96
2019-05-16T05:22:01.143Z,94.18
2019-05-16T05:24:34.219Z,94.50
2019-05-16T05:27:10.297Z,94.82
2019-05-16T05:29:41.541Z,94.76
2019-05-16T05:32:14.524Z,94.20
2019-05-16T05:34:46.704Z,94.62
2019-05-16T05:37:20.487Z,94.31
2019-05-16T05:39:52.561Z,93.72
2019-05-16T05:42:24.868Z,91.01
2019-05-16T05:44:57.268Z,88.41
2019-05-16T05:47:30.796Z,86.92
2019-05-16T05:50:03.061Z,86.03
2019-05-16T05:52:35.017Z,84.92
2019-05-16T05:55:07.370Z,84.61
2019-05-16T05:57:40.368Z,83.84
2019-05-16T06:00:12.686Z,82.72
2019-05-16T06:02:44.688Z,82.38
2019-05-16T06:05:20.210Z,81.70
2019-05-16T06:07:52.493Z,81.11
2019-05-16T06:10:24.559Z,79.95
2019-05-16T06:12:56.643Z,79.11
2019-05-16T06:15:30.621Z,79.17
2019-05-16T06:18:03.802Z,78.74
2019-05-16T06:20:39.992Z,78.90
2019-05-16T06:23:11.386Z,79.00
2019-05-16T06:25:43.414Z,78.65
2019-05-16T06:28:15.517Z,78.03
2019-05-16T06:30:51.572Z,77.84
2019-05-16T06:33:22.623Z,78.20
2019-05-16T06:35:54.779Z,77.85
2019-05-16T06:38:26.849Z,76.81
2019-05-16T06:41:00.274Z,75.94
2019-05-16T06:43:34.396Z,71.06
2019-05-16T06:46:06.367Z,63.78
2019-05-16T06:48:39.855Z,60.93
2019-05-16T06:51:12.186Z,59.63
2019-05-16T06:53:47.280Z,59.08
2019-05-16T06:56:20.070Z,59.34
2019-05-16T06:58:52.424Z,61.20
2019-05-16T07:01:36.730Z,61.81
2019-05-16T07:04:13.504Z,62.05
2019-05-16T07:06:58.615Z,62.24
2019-05-16T07:09:22.336Z,63.10
2019-05-16T07:11:54.551Z,63.31
2019-05-16T07:14:30.741Z,62.95
2019-05-16T07:17:00.809Z,63.57
2019-05-16T07:19:35.386Z,62.86
2019-05-16T07:22:06.808Z,61.35
2019-05-16T07:24:39.959Z,59.69
2019-05-16T07:27:12.588Z,58.64
2019-05-16T07:29:44.714Z,58.15
2019-05-16T07:32:16.988Z,58.40
2019-05-16T07:34:49.858Z,57.75
2019-05-16T07:37:22.328Z,57.63
2019-05-16T07:39:55.135Z,58.02
2019-05-16T07:42:27.228Z,58.13
2019-05-16T07:45:01.197Z,58.81
2019-05-16T07:47:33.312Z,58.15
2019-05-16T07:50:05.527Z,57.53
2019-05-16T07:52:39.980Z,57.15
2019-05-16T07:55:13.158Z,56.41
2019-05-16T07:57:45.242Z,56.08
2019-05-16T08:00:21.251Z,56.31
2019-05-16T08:02:51.608Z,57.49
2019-05-16T08:05:25.935Z,58.29
2019-05-16T08:08:00.050Z,60.72
2019-05-16T08:10:40.675Z,62.57
2019-05-16T08:13:05.731Z,65.95
2019-05-16T08:15:40.540Z,67.79
2019-05-16T08:18:11.618Z,68.24
2019-05-16T08:20:43.698Z,68.35
2019-05-16T08:23:16.743Z,66.79
2019-05-16T08:25:50.978Z,64.88
2019-05-16T08:28:24.215Z,63.01
2019-05-16T08:30:56.290Z,59.86
2019-05-16T08:33:31.195Z,57.19
2019-05-16T08:36:07.886Z,56.57
2019-05-16T08:38:43.263Z,55.72
2019-05-16T08:41:17.443Z,55.66
2019-05-16T08:43:53.406Z,55.24
2019-05-16T08:46:25.798Z,55.59
2019-05-16T08:49:00.826Z,57.00
2019-05-16T08:51:33.181Z,57.30
2019-05-16T08:54:05.883Z,57.94
2019-05-16T08:56:43.752Z,58.24
2019-05-16T08:59:13.612Z,57.84
2019-05-16T09:01:56.696Z,58.55
2019-05-16T09:04:25.888Z,59.01
2019-05-16T09:08:00.453Z,58.63
2019-05-16T09:10:59.970Z,56.84
2019-05-16T09:13:14.390Z,55.47
2019-05-16T09:15:48.125Z,55.35
2019-05-16T09:18:20.520Z,56.56
2019-05-16T09:20:53.459Z,56.17
2019-05-16T09:23:26.795Z,55.77
2019-05-16T09:26:01.752Z,55.88
2019-05-16T09:28:33.690Z,56.42
2019-05-16T09:31:07.140Z,57.02
2019-05-16T09:33:39.239Z,56.31
2019-05-16T09:36:11.422Z,56.06
2019-05-16T09:38:43.557Z,56.33
2019-05-16T09:41:17.051Z,57.01
2019-05-16T09:43:49.587Z,55.93
2019-05-16T09:46:21.512Z,55.42
2019-05-16T09:49:13.019Z,55.12
2019-05-16T09:51:27.400Z,54.36
2019-05-16T09:53:59.326Z,53.55
2019-05-16T09:56:33.598Z,52.23
2019-05-16T09:59:06.895Z,49.99
2019-05-16T10:01:39.018Z,48.05
2019-05-16T10:04:11.163Z,48.19
2019-05-16T10:06:43.173Z,47.68
2019-05-16T10:09:17.422Z,48.89
2019-05-16T10:11:54.151Z,49.67
2019-05-16T10:14:22.678Z,49.66
2019-05-16T10:16:54.582Z,49.74
2019-05-16T10:19:27.563Z,50.86
2019-05-16T10:22:00.298Z,52.09
2019-05-16T10:24:33.473Z,52.44
2019-05-16T10:27:06.860Z,51.88
2019-05-16T10:29:38.934Z,51.41
2019-05-16T10:32:11.074Z,51.70
2019-05-16T10:34:43.695Z,51.84
2019-05-16T10:37:17.577Z,52.74
2019-05-16T10:39:49.392Z,51.72
2019-05-16T10:42:28.537Z,51.63
2019-05-16T10:44:57.558Z,51.49
2019-05-16T10:47:31.325Z,51.25
2019-05-16T10:50:02.993Z,51.14
2019-05-16T10:52:36.718Z,51.47
2019-05-16T10:55:10.353Z,52.70
2019-05-16T10:57:43.995Z,51.75
2019-05-16T11:00:37.129Z,52.60
2019-05-16T11:02:52.262Z,53.58
2019-05-16T11:05:33.040Z,55.00
2019-05-16T11:08:02.385Z,55.04
2019-05-16T11:10:37.142Z,55.83
2019-05-16T11:13:08.396Z,55.96
2019-05-16T11:15:40.362Z,56.66
2019-05-16T11:18:13.123Z,56.48
2019-05-16T11:20:49.122Z,56.39
2019-05-16T11:23:23.035Z,54.16
2019-05-16T11:25:55.395Z,52.19
2019-05-16T11:28:28.227Z,51.25
2019-05-16T11:31:03.557Z,50.11
2019-05-16T11:33:34.057Z,50.25
2019-05-16T11:36:08.245Z,50.61
2019-05-16T11:38:39.980Z,50.10
2019-05-16T11:41:12.923Z,50.01
2019-05-16T11:43:47.401Z,50.55
2019-05-16T11:46:19.602Z,49.66
2019-05-16T11:48:51.591Z,48.32
2019-05-16T11:51:23.874Z,46.72
2019-05-16T11:54:00.010Z,44.38
2019-05-16T11:56:32.122Z,43.81
2019-05-16T11:59:04.144Z,41.31
2019-05-16T12:01:36.965Z,41.45
2019-05-16T12:04:09.323Z,39.90
2019-05-16T12:06:41.840Z,41.76
2019-05-16T12:09:14.013Z,43.23
2019-05-16T12:11:46.010Z,43.88
2019-05-16T12:14:17.942Z,43.46
2019-05-16T12:16:49.974Z,43.79
2019-05-16T12:19:22.025Z,43.71
2019-05-16T12:21:54.021Z,42.80
2019-05-16T12:24:33.660Z,41.62
2019-05-16T12:27:00.725Z,40.77
2019-05-16T12:29:32.848Z,37.32
2019-05-16T12:32:07.410Z,37.27
2019-05-16T12:34:38.545Z,39.55
2019-05-16T12:37:12.734Z,40.26
2019-05-16T12:39:47.140Z,40.54
2019-05-16T12:42:19.392Z,41.36
2019-05-16T12:44:51.330Z,42.21
2019-05-16T12:47:23.697Z,41.52
2019-05-16T12:49:58.217Z,40.82
2019-05-16T12:52:31.181Z,39.58
2019-05-16T12:55:04.125Z,39.19
2019-05-16T12:57:38.300Z,39.52
2019-05-16T13:00:15.344Z,40.00
2019-05-16T13:02:47.347Z,41.28
2019-05-16T13:05:20.462Z,43.71
2019-05-16T13:07:52.429Z,46.82
2019-05-16T13:10:27.034Z,47.61
2019-05-16T13:12:59.164Z,47.33
2019-05-16T13:15:31.081Z,47.95
2019-05-16T13:18:03.055Z,48.43
2019-05-16T13:20:39.232Z,48.59
2019-05-16T13:23:14.361Z,47.05
2019-05-16T13:25:44.277Z,46.59
2019-05-16T13:28:16.333Z,45.28
2019-05-16T13:30:48.329Z,44.09
2019-05-16T13:33:20.352Z,43.81
2019-05-16T13:35:52.256Z,43.27
2019-05-16T13:38:27.866Z,44.33
2019-05-16T13:41:00.113Z,43.75
2019-05-16T13:43:32.066Z,43.62
2019-05-16T13:46:06.857Z,43.31
2019-05-16T13:48:38.002Z,43.90
2019-05-16T13:51:15.208Z,43.93
2019-05-16T13:53:44.312Z,44.16
2019-05-16T13:56:17.555Z,44.25
2019-05-16T13:58:49.857Z,42.87
2019-05-16T14:01:23.254Z,43.31
2019-05-16T14:03:57.290Z,43.45
2019-05-16T14:06:30.884Z,43.37
2019-05-16T14:09:03.830Z,43.23
2019-05-16T14:11:36.504Z,44.20
2019-05-16T14:14:08.530Z,47.30
2019-05-16T14:16:41.500Z,47.72
2019-05-16T14:19:17.285Z,47.90
2019-05-16T14:21:48.121Z,47.35
2019-05-16T14:24:20.052Z,47.05
2019-05-16T14:26:52.018Z,46.93
2019-05-16T14:29:23.936Z,45.74
2019-05-16T14:31:58.725Z,46.51
2019-05-16T14:34:30.643Z,46.76
2019-05-16T14:37:02.621Z,47.52
2019-05-16T14:39:38.884Z,47.35
2019-05-16T14:42:11.279Z,47.72
2019-05-16T14:44:59.586Z,49.62
2019-05-16T14:47:17.722Z,50.37
2019-05-16T14:49:50.318Z,50.07
2019-05-16T14:52:22.227Z,50.92
2019-05-16T14:54:54.240Z,51.67
2019-05-16T14:57:27.403Z,52.48
2019-05-16T14:59:59.398Z,52.31
2019-05-16T15:02:31.415Z,52.87
2019-05-16T15:05:03.351Z,52.45
2019-05-16T15:07:37.623Z,51.93
2019-05-16T15:10:11.053Z,52.25
2019-05-16T15:12:43.075Z,52.04
2019-05-16T15:15:23.403Z,52.46
2019-05-16T15:17:56.668Z,52.01
2019-05-16T15:20:28.035Z,51.88
2019-05-16T15:23:00.041Z,51.24
2019-05-16T15:25:31.999Z,50.05
2019-05-16T15:28:03.956Z,50.06
2019-05-16T15:30:39.009Z,50.99
2019-05-16T15:33:10.962Z,50.24
2019-05-16T15:35:42.925Z,49.88
2019-05-16T15:38:16.671Z,48.69
2019-05-16T15:40:50.767Z,48.65
2019-05-16T15:43:27.543Z,49.36
2019-05-16T15:46:01.144Z,50.02
2019-05-16T15:48:36.852Z,49.80
2019-05-16T15:51:09.139Z,50.37
2019-05-16T15:53:41.207Z,51.28
2019-05-16T15:56:17.628Z,52.06
2019-05-16T15:58:49.227Z,52.80
2019-05-16T16:01:21.314Z,54.43
2019-05-16T16:03:53.246Z,54.88
2019-05-16T16:06:27.444Z,55.11
2019-05-16T16:09:00.013Z,56.03
2019-05-16T16:11:32.001Z,56.85
2019-05-16T16:14:06.993Z,57.98
2019-05-16T16:16:38.509Z,62.97
2019-05-16T16:19:10.470Z,65.25
2019-05-16T16:21:47.074Z,66.21
2019-05-16T16:24:19.133Z,63.44
2019-05-16T16:26:51.455Z,61.82
2019-05-16T16:29:23.853Z,61.52
2019-05-16T16:31:56.906Z,61.85
2019-05-16T16:34:28.978Z,62.19
2019-05-16T16:37:00.939Z,63.11
2019-05-16T16:39:33.591Z,64.36
2019-05-16T16:42:07.616Z,65.09
2019-05-16T16:44:39.384Z,64.87
2019-05-16T16:47:11.684Z,66.80
2019-05-16T16:49:43.668Z,66.34
2019-05-16T16:52:16.779Z,64.19
2019-05-16T16:54:49.595Z,62.46
2019-05-16T16:57:21.522Z,62.11
2019-05-16T16:59:53.825Z,63.40
2019-05-16T17:02:27.790Z,64.11
2019-05-16T17:05:01.599Z,65.19
2019-05-16T17:07:37.297Z,65.55
2019-05-16T17:10:10.228Z,66.03
2019-05-16T17:12:42.699Z,65.98
2019-05-16T17:15:17.062Z,66.76
2019-05-16T17:17:48.723Z,67.43
2019-05-16T17:20:20.968Z,67.26
2019-05-16T17:22:52.890Z,67.14
2019-05-16T17:25:26.876Z,67.43
2019-05-16T17:28:00.309Z,66.87
2019-05-16T17:30:36.768Z,65.19
2019-05-16T17:33:09.042Z,64.71
2019-05-16T17:35:41.525Z,63.70
2019-05-16T17:38:13.495Z,62.94
2019-05-16T17:40:46.449Z,63.06
2019-05-16T17:43:19.649Z,62.16
2019-05-16T17:45:51.629Z,61.09
2019-05-16T17:48:27.221Z,60.18
2019-05-16T17:50:57.200Z,60.13
2019-05-16T17:53:29.124Z,60.52
2019-05-16T17:56:02.123Z,61.67
2019-05-16T17:58:34.091Z,62.02
2019-05-16T18:01:08.001Z,61.73
2019-05-16T18:03:39.953Z,62.00
2019-05-16T18:06:16.877Z,62.43
2019-05-16T18:08:48.548Z,62.61
2019-05-16T18:11:20.559Z,62.32
2019-05-16T18:13:57.142Z,62.09
2019-05-16T18:16:30.323Z,62.24
2019-05-16T18:19:02.286Z,62.54
2019-05-16T18:21:34.247Z,63.12
2019-05-16T18:24:06.428Z,63.29
2019-05-16T18:26:38.491Z,63.24
2019-05-16T18:29:10.526Z,62.97
2019-05-16T18:31:42.497Z,62.59
2019-05-16T18:34:16.865Z,62.02
2019-05-16T18:36:48.595Z,61.64
2019-05-16T18:39:20.521Z,61.58
2019-05-16T18:41:52.630Z,60.42
2019-05-16T18:44:24.575Z,60.01
2019-05-16T18:47:06.664Z,59.53
2019-05-16T18:49:30.218Z,59.21
2019-05-16T18:52:02.217Z,58.07
2019-05-16T18:54:37.595Z,58.79
2019-05-16T18:57:09.512Z,58.06
2019-05-16T18:59:41.855Z,57.78
2019-05-16T19:02:13.871Z,59.00
2019-05-16T19:04:46.575Z,60.49
2019-05-16T19:07:19.710Z,61.59
2019-05-16T19:09:51.730Z,61.44
2019-05-16T19:12:26.189Z,60.84
2019-05-16T19:15:00.215Z,60.60
2019-05-16T19:31:00.237Z,64.64
2019-05-16T19:33:35.937Z,64.77
2019-05-16T19:36:12.588Z,65.05
2019-05-16T19:38:49.688Z,65.31
2019-05-16T19:41:29.124Z,64.82
2019-05-16T19:44:06.726Z,65.38
2019-05-16T19:46:47.273Z,65.93
2019-05-16T19:49:21.562Z,66.71
2019-05-16T19:51:53.723Z,67.34
2019-05-16T19:54:27.032Z,67.97
2019-05-16T19:57:00.442Z,68.39
2019-05-16T19:59:36.581Z,68.99
2019-05-16T20:02:08.491Z,69.41
2019-05-16T20:04:40.457Z,69.62
2019-05-16T20:07:12.410Z,69.43
2019-05-16T20:09:46.807Z,68.86
2019-05-16T20:12:18.087Z,69.68
2019-05-16T20:14:50.030Z,70.20
2019-05-16T20:17:22.032Z,71.13
2019-05-16T20:19:56.257Z,71.12
2019-05-16T20:22:27.636Z,71.24
2019-05-16T20:24:59.702Z,71.36
2019-05-16T20:27:31.674Z,71.69
2019-05-16T20:30:06.515Z,71.80
2019-05-16T20:32:41.606Z,71.79
2019-05-16T20:35:17.330Z,72.18
2019-05-16T20:37:48.582Z,72.17
2019-05-16T20:40:20.745Z,72.19
2019-05-16T20:42:52.735Z,72.26
2019-05-16T20:45:27.078Z,72.60
2019-05-16T20:48:10.880Z,72.56
2019-05-16T20:50:33.758Z,72.91
2019-05-16T20:53:07.231Z,73.83
2019-05-16T20:55:39.733Z,74.01
2019-05-16T20:58:11.983Z,74.14
2019-05-16T21:00:44.095Z,74.55
2019-05-16T21:03:16.449Z,74.75
2019-05-16T21:05:48.656Z,74.82
2019-05-16T21:08:20.936Z,75.21
2019-05-16T21:10:53.208Z,75.62
2019-05-16T21:13:25.409Z,75.93
2019-05-16T21:15:57.793Z,75.21
2019-05-16T21:18:30.216Z,75.03
2019-05-16T21:21:03.612Z,74.90
2019-05-16T21:23:37.488Z,74.91
2019-05-16T21:26:09.639Z,74.60
2019-05-16T21:28:41.922Z,74.75
2019-05-16T21:31:16.400Z,74.21
2019-05-16T21:33:49.340Z,74.17
2019-05-16T21:36:21.841Z,73.79
2019-05-16T21:38:54.443Z,73.98
2019-05-16T21:41:27.111Z,74.27
2019-05-16T21:44:00.857Z,74.60
2019-05-16T21:46:36.394Z,75.03
2019-05-16T21:49:08.113Z,75.55
2019-05-16T21:51:40.465Z,75.52
2019-05-16T21:54:12.850Z,75.72
2019-05-16T21:56:46.802Z,75.91
2019-05-16T21:59:19.644Z,76.22
2019-05-16T22:01:52.143Z,76.21
2019-05-16T22:04:24.539Z,77.01
2019-05-16T22:07:00.293Z,77.65
2019-05-16T22:09:33.699Z,77.95
2019-05-16T22:12:07.587Z,78.09
2019-05-16T22:14:46.652Z,78.74
2019-05-16T22:17:19.155Z,79.06
2019-05-16T22:19:51.466Z,79.55
2019-05-16T22:22:27.551Z,80.25
2019-05-16T22:24:59.124Z,80.58
2019-05-16T22:27:33.381Z,80.58
2019-05-16T22:30:08.497Z,80.71
2019-05-16T22:32:41.059Z,80.69
2019-05-16T22:35:13.775Z,80.80
2019-05-16T22:37:55.130Z,80.78
2019-05-16T22:40:22.430Z,81.24
2019-05-16T22:42:54.616Z,81.58
2019-05-16T22:45:27.246Z,81.74
2019-05-16T22:47:59.711Z,81.89
2019-05-16T22:50:33.598Z,81.83
2019-05-16T22:53:06.400Z,82.13
2019-05-16T22:55:38.901Z,82.29
2019-05-16T22:58:11.144Z,82.34
2019-05-16T23:00:44.580Z,82.96
2019-05-16T23:03:19.800Z,83.21
2019-05-16T23:05:51.921Z,83.74
2019-05-16T23:08:24.059Z,83.96
2019-05-16T23:10:56.679Z,83.37
2019-05-16T23:13:29.315Z,84.06
2019-05-16T23:16:03.098Z,84.42
2019-05-16T23:18:37.280Z,84.71
2019-05-16T23:21:10.811Z,85.07
2019-05-16T23:23:42.791Z,86.04
2019-05-16T23:26:16.769Z,86.54
2019-05-16T23:28:50.567Z,87.08
2019-05-16T23:31:24.384Z,87.62
2019-05-16T23:33:59.300Z,87.92
2019-05-16T23:36:31.303Z,88.62
2019-05-16T23:39:06.243Z,89.16
2019-05-16T23:41:42.095Z,89.30
2019-05-16T23:44:16.518Z,89.84
2019-05-16T23:46:47.852Z,90.36
2019-05-16T23:49:20.303Z,91.00
2019-05-16T23:51:52.831Z,92.14
2019-05-16T23:54:27.819Z,92.59
2019-05-16T23:56:59.520Z,93.14
2019-05-16T23:59:31.556Z,93.26
